Terminal Aerodrome Forecast
Issued by NWS

Home | Current Version | Previous Version | Text Only | Print | Product List | Glossary On
Versions: 1 2 3 4 5 6 7 8 9 10 11 12 13 14
000
FTUS43 KFGF 221100
TAFBJI
TAF
KBJI 221137Z 2212/2312 12008KT 4SM BR OVC003
     FM221600 11006KT 2SM -RA BR OVC003
     FM230000 10008KT 2SM -RASN BR OVC003
     FM230300 07007KT 1 1/2SM -SN BR OVC003=

USA.gov is the U.S. government's official web portal to all federal, state and local government web resources and services.